sensor_id;sensor_type;location;lat;lon;timestamp;P1;durP1;ratioP1;P2;durP2;ratioP2
13891;SDS011;7016;48.172;8.058;2022-10-16T00:01:07;6.75;;;1.70;;
13891;SDS011;7016;48.172;8.058;2022-10-16T00:03:34;4.70;;;1.40;;
13891;SDS011;7016;48.172;8.058;2022-10-16T00:06:01;6.90;;;1.10;;
13891;SDS011;7016;48.172;8.058;2022-10-16T00:08:27;9.98;;;1.60;;
13891;SDS011;7016;48.172;8.058;2022-10-16T00:10:58;9.18;;;1.60;;
13891;SDS011;7016;48.172;8.058;2022-10-16T00:13:39;3.35;;;1.70;;
13891;SDS011;7016;48.172;8.058;2022-10-16T00:16:06;13.75;;;1.48;;
13891;SDS011;7016;48.172;8.058;2022-10-16T00:18:32;9.98;;;1.83;;
13891;SDS011;7016;48.172;8.058;2022-10-16T00:21:02;5.68;;;1.63;;
13891;SDS011;7016;48.172;8.058;2022-10-16T00:26:00;6.68;;;1.40;;
13891;SDS011;7016;48.172;8.058;2022-10-16T00:28:28;9.00;;;1.48;;
13891;SDS011;7016;48.172;8.058;2022-10-16T00:30:54;7.88;;;1.45;;
13891;SDS011;7016;48.172;8.058;2022-10-16T00:33:20;5.55;;;1.35;;
13891;SDS011;7016;48.172;8.058;2022-10-16T00:35:46;2.65;;;1.40;;
13891;SDS011;7016;48.172;8.058;2022-10-16T00:38:12;6.53;;;1.55;;
13891;SDS011;7016;48.172;8.058;2022-10-16T00:40:38;2.65;;;1.58;;
13891;SDS011;7016;48.172;8.058;2022-10-16T00:43:13;4.13;;;1.65;;
13891;SDS011;7016;48.172;8.058;2022-10-16T00:45:57;5.00;;;1.35;;
13891;SDS011;7016;48.172;8.058;2022-10-16T00:48:24;2.65;;;1.30;;
13891;SDS011;7016;48.172;8.058;2022-10-16T00:50:49;3.38;;;1.27;;
13891;SDS011;7016;48.172;8.058;2022-10-16T00:53:15;9.32;;;1.27;;
13891;SDS011;7016;48.172;8.058;2022-10-16T00:55:42;4.55;;;1.20;;
13891;SDS011;7016;48.172;8.058;2022-10-16T00:58:08;3.60;;;1.40;;
13891;SDS011;7016;48.172;8.058;2022-10-16T01:00:35;5.68;;;1.75;;
13891;SDS011;7016;48.172;8.058;2022-10-16T01:03:01;12.25;;;1.60;;
13891;SDS011;7016;48.172;8.058;2022-10-16T01:05:37;5.90;;;1.33;;
13891;SDS011;7016;48.172;8.058;2022-10-16T01:08:13;4.88;;;1.35;;
13891;SDS011;7016;48.172;8.058;2022-10-16T01:11:28;7.53;;;1.30;;
13891;SDS011;7016;48.172;8.058;2022-10-16T01:13:50;10.00;;;1.50;;
13891;SDS011;7016;48.172;8.058;2022-10-16T01:18:57;5.93;;;1.48;;
13891;SDS011;7016;48.172;8.058;2022-10-16T01:21:36;4.95;;;1.60;;
13891;SDS011;7016;48.172;8.058;2022-10-16T01:24:14;3.22;;;1.30;;
13891;SDS011;7016;48.172;8.058;2022-10-16T01:29:39;7.38;;;2.10;;
13891;SDS011;7016;48.172;8.058;2022-10-16T01:32:59;4.70;;;1.80;;
13891;SDS011;7016;48.172;8.058;2022-10-16T01:35:14;5.20;;;1.83;;
13891;SDS011;7016;48.172;8.058;2022-10-16T01:38:05;9.18;;;2.20;;
13891;SDS011;7016;48.172;8.058;2022-10-16T01:40:32;7.67;;;2.00;;
13891;SDS011;7016;48.172;8.058;2022-10-16T01:45:47;9.48;;;1.98;;
13891;SDS011;7016;48.172;8.058;2022-10-16T01:48:16;7.22;;;2.08;;
13891;SDS011;7016;48.172;8.058;2022-10-16T01:50:52;7.88;;;1.77;;
13891;SDS011;7016;48.172;8.058;2022-10-16T01:53:24;5.53;;;1.67;;
13891;SDS011;7016;48.172;8.058;2022-10-16T01:55:51;6.38;;;1.27;;
13891;SDS011;7016;48.172;8.058;2022-10-16T01:58:19;2.72;;;1.48;;
13891;SDS011;7016;48.172;8.058;2022-10-16T02:00:47;7.25;;;1.80;;
13891;SDS011;7016;48.172;8.058;2022-10-16T02:03:14;6.65;;;1.60;;
13891;SDS011;7016;48.172;8.058;2022-10-16T02:08:14;11.60;;;1.83;;
13891;SDS011;7016;48.172;8.058;2022-10-16T02:10:40;9.07;;;1.95;;
13891;SDS011;7016;48.172;8.058;2022-10-16T02:13:06;5.05;;;2.00;;
13891;SDS011;7016;48.172;8.058;2022-10-16T02:15:39;7.75;;;1.50;;
13891;SDS011;7016;48.172;8.058;2022-10-16T02:18:05;12.77;;;1.83;;
13891;SDS011;7016;48.172;8.058;2022-10-16T02:20:55;11.88;;;1.30;;
13891;SDS011;7016;48.172;8.058;2022-10-16T02:24:05;7.85;;;1.50;;
13891;SDS011;7016;48.172;8.058;2022-10-16T02:26:28;4.32;;;1.15;;
13891;SDS011;7016;48.172;8.058;2022-10-16T02:29:20;10.40;;;1.70;;
13891;SDS011;7016;48.172;8.058;2022-10-16T02:31:50;12.55;;;1.95;;
13891;SDS011;7016;48.172;8.058;2022-10-16T02:34:20;8.45;;;1.67;;
13891;SDS011;7016;48.172;8.058;2022-10-16T02:36:49;5.18;;;1.80;;
13891;SDS011;7016;48.172;8.058;2022-10-16T02:39:16;8.57;;;1.42;;
13891;SDS011;7016;48.172;8.058;2022-10-16T02:41:43;7.80;;;1.63;;
13891;SDS011;7016;48.172;8.058;2022-10-16T02:44:09;8.18;;;1.60;;
13891;SDS011;7016;48.172;8.058;2022-10-16T02:46:35;9.35;;;1.27;;
13891;SDS011;7016;48.172;8.058;2022-10-16T02:49:00;7.47;;;1.58;;
13891;SDS011;7016;48.172;8.058;2022-10-16T02:51:26;9.70;;;1.77;;
13891;SDS011;7016;48.172;8.058;2022-10-16T02:53:52;4.38;;;1.48;;
13891;SDS011;7016;48.172;8.058;2022-10-16T02:56:18;9.73;;;1.00;;
13891;SDS011;7016;48.172;8.058;2022-10-16T02:58:43;6.70;;;1.33;;
13891;SDS011;7016;48.172;8.058;2022-10-16T03:01:09;10.90;;;1.73;;
13891;SDS011;7016;48.172;8.058;2022-10-16T03:03:37;9.35;;;1.83;;
13891;SDS011;7016;48.172;8.058;2022-10-16T03:06:03;5.05;;;1.50;;
13891;SDS011;7016;48.172;8.058;2022-10-16T03:08:29;7.07;;;1.40;;
13891;SDS011;7016;48.172;8.058;2022-10-16T03:10:56;5.22;;;1.40;;
13891;SDS011;7016;48.172;8.058;2022-10-16T03:13:22;9.48;;;1.40;;
13891;SDS011;7016;48.172;8.058;2022-10-16T03:15:47;7.72;;;1.38;;
13891;SDS011;7016;48.172;8.058;2022-10-16T03:18:13;14.05;;;1.58;;
13891;SDS011;7016;48.172;8.058;2022-10-16T03:20:39;3.72;;;1.00;;
13891;SDS011;7016;48.172;8.058;2022-10-16T03:23:05;6.88;;;1.25;;
13891;SDS011;7016;48.172;8.058;2022-10-16T03:25:33;8.73;;;1.55;;
13891;SDS011;7016;48.172;8.058;2022-10-16T03:27:58;8.40;;;1.95;;
13891;SDS011;7016;48.172;8.058;2022-10-16T03:30:24;7.88;;;1.88;;
13891;SDS011;7016;48.172;8.058;2022-10-16T03:32:50;9.20;;;1.60;;
13891;SDS011;7016;48.172;8.058;2022-10-16T03:35:19;8.18;;;1.60;;
13891;SDS011;7016;48.172;8.058;2022-10-16T03:37:48;6.75;;;1.30;;
13891;SDS011;7016;48.172;8.058;2022-10-16T03:40:15;8.77;;;1.88;;
13891;SDS011;7016;48.172;8.058;2022-10-16T03:42:42;10.77;;;1.80;;
13891;SDS011;7016;48.172;8.058;2022-10-16T03:45:08;5.90;;;1.58;;
13891;SDS011;7016;48.172;8.058;2022-10-16T03:47:34;8.43;;;1.67;;
13891;SDS011;7016;48.172;8.058;2022-10-16T03:50:00;6.20;;;1.33;;
13891;SDS011;7016;48.172;8.058;2022-10-16T03:52:26;7.88;;;1.70;;
13891;SDS011;7016;48.172;8.058;2022-10-16T03:54:52;8.15;;;1.80;;
13891;SDS011;7016;48.172;8.058;2022-10-16T03:57:17;4.18;;;1.58;;
13891;SDS011;7016;48.172;8.058;2022-10-16T03:59:43;6.72;;;2.25;;
13891;SDS011;7016;48.172;8.058;2022-10-16T04:02:09;3.90;;;1.30;;
13891;SDS011;7016;48.172;8.058;2022-10-16T04:04:35;12.82;;;2.13;;
13891;SDS011;7016;48.172;8.058;2022-10-16T04:07:01;11.45;;;1.90;;
13891;SDS011;7016;48.172;8.058;2022-10-16T04:09:26;10.35;;;2.15;;
13891;SDS011;7016;48.172;8.058;2022-10-16T04:11:52;6.72;;;1.60;;
13891;SDS011;7016;48.172;8.058;2022-10-16T04:14:18;10.85;;;1.70;;
13891;SDS011;7016;48.172;8.058;2022-10-16T04:16:44;5.07;;;1.40;;
13891;SDS011;7016;48.172;8.058;2022-10-16T04:19:10;4.97;;;1.45;;
13891;SDS011;7016;48.172;8.058;2022-10-16T04:21:36;9.18;;;1.38;;
13891;SDS011;7016;48.172;8.058;2022-10-16T04:24:02;4.03;;;1.65;;
13891;SDS011;7016;48.172;8.058;2022-10-16T04:26:28;7.75;;;1.42;;
13891;SDS011;7016;48.172;8.058;2022-10-16T04:28:54;10.02;;;2.25;;
13891;SDS011;7016;48.172;8.058;2022-10-16T04:31:20;7.40;;;2.38;;
13891;SDS011;7016;48.172;8.058;2022-10-16T04:33:46;5.68;;;1.10;;
13891;SDS011;7016;48.172;8.058;2022-10-16T04:36:11;15.65;;;2.15;;
13891;SDS011;7016;48.172;8.058;2022-10-16T04:38:38;7.85;;;2.05;;
13891;SDS011;7016;48.172;8.058;2022-10-16T04:41:04;11.15;;;1.73;;
13891;SDS011;7016;48.172;8.058;2022-10-16T04:43:31;6.10;;;1.70;;
13891;SDS011;7016;48.172;8.058;2022-10-16T04:45:56;8.18;;;1.52;;
13891;SDS011;7016;48.172;8.058;2022-10-16T04:48:22;8.02;;;1.48;;
13891;SDS011;7016;48.172;8.058;2022-10-16T04:50:48;6.70;;;1.80;;
13891;SDS011;7016;48.172;8.058;2022-10-16T04:53:14;6.65;;;2.08;;
13891;SDS011;7016;48.172;8.058;2022-10-16T04:55:40;15.40;;;1.98;;
13891;SDS011;7016;48.172;8.058;2022-10-16T04:58:06;4.00;;;1.63;;
13891;SDS011;7016;48.172;8.058;2022-10-16T05:00:33;10.23;;;4.43;;
13891;SDS011;7016;48.172;8.058;2022-10-16T05:02:59;9.15;;;2.65;;
13891;SDS011;7016;48.172;8.058;2022-10-16T05:05:26;7.22;;;2.53;;
13891;SDS011;7016;48.172;8.058;2022-10-16T05:07:53;12.57;;;2.63;;
13891;SDS011;7016;48.172;8.058;2022-10-16T05:10:19;7.70;;;2.13;;
13891;SDS011;7016;48.172;8.058;2022-10-16T05:12:46;8.23;;;2.40;;
13891;SDS011;7016;48.172;8.058;2022-10-16T05:15:12;8.48;;;2.22;;
13891;SDS011;7016;48.172;8.058;2022-10-16T05:17:37;11.13;;;2.45;;
13891;SDS011;7016;48.172;8.058;2022-10-16T05:20:03;8.15;;;2.17;;
13891;SDS011;7016;48.172;8.058;2022-10-16T05:22:29;5.95;;;2.05;;
13891;SDS011;7016;48.172;8.058;2022-10-16T05:24:55;5.57;;;2.13;;
13891;SDS011;7016;48.172;8.058;2022-10-16T05:27:21;11.63;;;2.28;;
13891;SDS011;7016;48.172;8.058;2022-10-16T05:29:47;17.33;;;2.25;;
13891;SDS011;7016;48.172;8.058;2022-10-16T05:32:13;8.07;;;1.48;;
13891;SDS011;7016;48.172;8.058;2022-10-16T05:34:41;7.30;;;2.20;;
13891;SDS011;7016;48.172;8.058;2022-10-16T05:37:06;12.15;;;2.45;;
13891;SDS011;7016;48.172;8.058;2022-10-16T05:39:32;5.45;;;1.90;;
13891;SDS011;7016;48.172;8.058;2022-10-16T05:41:58;3.65;;;1.30;;
13891;SDS011;7016;48.172;8.058;2022-10-16T05:44:24;6.03;;;1.67;;
13891;SDS011;7016;48.172;8.058;2022-10-16T05:46:49;13.57;;;2.00;;
13891;SDS011;7016;48.172;8.058;2022-10-16T05:49:15;12.85;;;2.40;;
13891;SDS011;7016;48.172;8.058;2022-10-16T05:51:41;11.57;;;2.10;;
13891;SDS011;7016;48.172;8.058;2022-10-16T05:54:07;15.85;;;2.53;;
13891;SDS011;7016;48.172;8.058;2022-10-16T05:56:33;8.13;;;2.10;;
13891;SDS011;7016;48.172;8.058;2022-10-16T05:58:59;10.70;;;1.85;;
13891;SDS011;7016;48.172;8.058;2022-10-16T06:01:24;3.13;;;1.75;;
13891;SDS011;7016;48.172;8.058;2022-10-16T06:03:51;6.07;;;1.80;;
13891;SDS011;7016;48.172;8.058;2022-10-16T06:06:18;9.10;;;2.85;;
13891;SDS011;7016;48.172;8.058;2022-10-16T06:08:46;10.65;;;2.55;;
13891;SDS011;7016;48.172;8.058;2022-10-16T06:11:17;11.80;;;2.35;;
13891;SDS011;7016;48.172;8.058;2022-10-16T06:13:45;12.82;;;2.45;;
13891;SDS011;7016;48.172;8.058;2022-10-16T06:16:14;4.70;;;2.20;;
13891;SDS011;7016;48.172;8.058;2022-10-16T06:18:39;7.40;;;2.42;;
13891;SDS011;7016;48.172;8.058;2022-10-16T06:21:09;10.55;;;2.30;;
13891;SDS011;7016;48.172;8.058;2022-10-16T06:23:37;11.35;;;2.97;;
13891;SDS011;7016;48.172;8.058;2022-10-16T06:26:10;11.93;;;3.40;;
13891;SDS011;7016;48.172;8.058;2022-10-16T06:28:38;13.65;;;3.35;;
13891;SDS011;7016;48.172;8.058;2022-10-16T06:31:04;8.07;;;2.85;;
13891;SDS011;7016;48.172;8.058;2022-10-16T06:33:32;13.07;;;2.65;;
13891;SDS011;7016;48.172;8.058;2022-10-16T06:36:04;12.13;;;2.70;;
13891;SDS011;7016;48.172;8.058;2022-10-16T06:38:42;12.33;;;3.07;;
13891;SDS011;7016;48.172;8.058;2022-10-16T06:41:09;9.95;;;3.50;;
13891;SDS011;7016;48.172;8.058;2022-10-16T06:43:37;10.85;;;2.95;;
13891;SDS011;7016;48.172;8.058;2022-10-16T06:46:05;7.15;;;2.88;;
13891;SDS011;7016;48.172;8.058;2022-10-16T06:48:33;8.45;;;3.20;;
13891;SDS011;7016;48.172;8.058;2022-10-16T06:51:12;13.80;;;2.80;;
13891;SDS011;7016;48.172;8.058;2022-10-16T06:53:44;8.60;;;2.90;;
13891;SDS011;7016;48.172;8.058;2022-10-16T06:56:32;10.30;;;3.17;;
13891;SDS011;7016;48.172;8.058;2022-10-16T06:58:58;10.57;;;2.80;;
13891;SDS011;7016;48.172;8.058;2022-10-16T07:01:24;12.45;;;3.72;;
13891;SDS011;7016;48.172;8.058;2022-10-16T07:03:50;9.55;;;3.15;;
13891;SDS011;7016;48.172;8.058;2022-10-16T07:06:18;15.35;;;3.40;;
13891;SDS011;7016;48.172;8.058;2022-10-16T07:08:45;9.15;;;3.05;;
13891;SDS011;7016;48.172;8.058;2022-10-16T07:11:13;10.65;;;2.80;;
13891;SDS011;7016;48.172;8.058;2022-10-16T07:13:45;13.13;;;3.67;;
13891;SDS011;7016;48.172;8.058;2022-10-16T07:16:16;10.70;;;2.97;;
13891;SDS011;7016;48.172;8.058;2022-10-16T07:18:43;11.02;;;3.60;;
13891;SDS011;7016;48.172;8.058;2022-10-16T07:21:12;8.10;;;2.90;;
13891;SDS011;7016;48.172;8.058;2022-10-16T07:23:40;6.18;;;3.28;;
13891;SDS011;7016;48.172;8.058;2022-10-16T07:26:06;5.75;;;3.15;;
13891;SDS011;7016;48.172;8.058;2022-10-16T07:28:32;10.05;;;3.10;;
13891;SDS011;7016;48.172;8.058;2022-10-16T07:31:02;9.77;;;3.35;;
13891;SDS011;7016;48.172;8.058;2022-10-16T07:33:33;18.88;;;4.00;;
13891;SDS011;7016;48.172;8.058;2022-10-16T07:35:59;7.72;;;3.78;;
13891;SDS011;7016;48.172;8.058;2022-10-16T07:38:25;13.00;;;3.70;;
13891;SDS011;7016;48.172;8.058;2022-10-16T07:40:58;7.32;;;3.42;;
13891;SDS011;7016;48.172;8.058;2022-10-16T07:43:28;8.40;;;3.08;;
13891;SDS011;7016;48.172;8.058;2022-10-16T07:45:54;11.90;;;3.20;;
13891;SDS011;7016;48.172;8.058;2022-10-16T07:48:21;10.80;;;3.28;;
13891;SDS011;7016;48.172;8.058;2022-10-16T07:50:48;11.57;;;3.22;;
13891;SDS011;7016;48.172;8.058;2022-10-16T07:53:14;11.57;;;3.22;;
13891;SDS011;7016;48.172;8.058;2022-10-16T07:55:40;11.55;;;3.70;;
13891;SDS011;7016;48.172;8.058;2022-10-16T07:58:06;9.02;;;3.22;;
13891;SDS011;7016;48.172;8.058;2022-10-16T08:00:32;6.57;;;3.78;;
13891;SDS011;7016;48.172;8.058;2022-10-16T08:02:58;8.35;;;3.65;;
13891;SDS011;7016;48.172;8.058;2022-10-16T08:05:26;20.15;;;4.85;;
13891;SDS011;7016;48.172;8.058;2022-10-16T08:07:55;13.80;;;4.30;;
13891;SDS011;7016;48.172;8.058;2022-10-16T08:10:22;8.30;;;3.67;;
13891;SDS011;7016;48.172;8.058;2022-10-16T08:12:50;15.80;;;5.00;;
13891;SDS011;7016;48.172;8.058;2022-10-16T08:15:17;14.38;;;4.82;;
13891;SDS011;7016;48.172;8.058;2022-10-16T08:17:43;14.80;;;4.78;;
13891;SDS011;7016;48.172;8.058;2022-10-16T08:20:09;14.07;;;4.38;;
13891;SDS011;7016;48.172;8.058;2022-10-16T08:22:35;6.88;;;3.28;;
13891;SDS011;7016;48.172;8.058;2022-10-16T08:25:02;10.40;;;3.63;;
13891;SDS011;7016;48.172;8.058;2022-10-16T08:27:31;9.85;;;3.28;;
13891;SDS011;7016;48.172;8.058;2022-10-16T08:29:57;12.65;;;3.63;;
13891;SDS011;7016;48.172;8.058;2022-10-16T08:32:23;11.85;;;4.03;;
13891;SDS011;7016;48.172;8.058;2022-10-16T08:34:49;9.45;;;3.28;;
13891;SDS011;7016;48.172;8.058;2022-10-16T08:37:14;8.93;;;3.70;;
13891;SDS011;7016;48.172;8.058;2022-10-16T08:39:40;8.77;;;3.58;;
13891;SDS011;7016;48.172;8.058;2022-10-16T08:44:44;6.22;;;3.92;;
13891;SDS011;7016;48.172;8.058;2022-10-16T08:47:42;11.77;;;2.88;;
13891;SDS011;7016;48.172;8.058;2022-10-16T08:50:27;9.88;;;3.65;;
13891;SDS011;7016;48.172;8.058;2022-10-16T08:52:56;10.98;;;3.53;;
13891;SDS011;7016;48.172;8.058;2022-10-16T08:58:14;6.55;;;2.80;;
13891;SDS011;7016;48.172;8.058;2022-10-16T09:00:46;10.63;;;3.10;;
13891;SDS011;7016;48.172;8.058;2022-10-16T09:14:12;12.73;;;3.38;;
13891;SDS011;7016;48.172;8.058;2022-10-16T09:25:28;16.15;;;4.22;;
13891;SDS011;7016;48.172;8.058;2022-10-16T09:27:55;9.35;;;4.20;;
13891;SDS011;7016;48.172;8.058;2022-10-16T09:30:21;8.95;;;3.63;;
13891;SDS011;7016;48.172;8.058;2022-10-16T09:32:51;12.32;;;3.90;;
13891;SDS011;7016;48.172;8.058;2022-10-16T09:35:22;12.50;;;4.03;;
13891;SDS011;7016;48.172;8.058;2022-10-16T09:38:24;13.30;;;4.80;;
13891;SDS011;7016;48.172;8.058;2022-10-16T09:40:53;9.98;;;4.60;;
13891;SDS011;7016;48.172;8.058;2022-10-16T09:43:33;10.73;;;3.42;;
13891;SDS011;7016;48.172;8.058;2022-10-16T09:46:01;16.27;;;3.90;;
13891;SDS011;7016;48.172;8.058;2022-10-16T09:48:48;13.63;;;5.18;;
13891;SDS011;7016;48.172;8.058;2022-10-16T09:51:24;10.10;;;3.40;;
13891;SDS011;7016;48.172;8.058;2022-10-16T09:53:54;11.80;;;4.30;;
13891;SDS011;7016;48.172;8.058;2022-10-16T09:56:40;8.15;;;3.42;;
13891;SDS011;7016;48.172;8.058;2022-10-16T09:59:14;7.03;;;3.10;;
13891;SDS011;7016;48.172;8.058;2022-10-16T10:01:43;5.05;;;1.95;;
13891;SDS011;7016;48.172;8.058;2022-10-16T10:04:09;5.47;;;2.17;;
13891;SDS011;7016;48.172;8.058;2022-10-16T10:09:25;5.95;;;1.85;;
13891;SDS011;7016;48.172;8.058;2022-10-16T10:14:24;10.00;;;2.50;;
13891;SDS011;7016;48.172;8.058;2022-10-16T10:20:11;7.25;;;1.90;;
13891;SDS011;7016;48.172;8.058;2022-10-16T10:27:39;7.20;;;1.52;;
13891;SDS011;7016;48.172;8.058;2022-10-16T10:30:18;3.78;;;1.20;;
13891;SDS011;7016;48.172;8.058;2022-10-16T10:49:31;3.33;;;1.40;;
13891;SDS011;7016;48.172;8.058;2022-10-16T10:58:24;3.33;;;1.17;;
13891;SDS011;7016;48.172;8.058;2022-10-16T11:01:32;3.05;;;1.45;;
13891;SDS011;7016;48.172;8.058;2022-10-16T11:06:19;6.63;;;1.40;;
13891;SDS011;7016;48.172;8.058;2022-10-16T11:08:54;3.78;;;1.02;;
13891;SDS011;7016;48.172;8.058;2022-10-16T11:11:40;4.75;;;1.20;;
13891;SDS011;7016;48.172;8.058;2022-10-16T11:14:19;7.05;;;1.30;;
13891;SDS011;7016;48.172;8.058;2022-10-16T11:16:52;5.22;;;1.33;;
13891;SDS011;7016;48.172;8.058;2022-10-16T11:22:15;5.47;;;1.45;;
13891;SDS011;7016;48.172;8.058;2022-10-16T11:25:17;11.05;;;1.40;;
13891;SDS011;7016;48.172;8.058;2022-10-16T11:27:50;9.30;;;1.40;;
13891;SDS011;7016;48.172;8.058;2022-10-16T11:30:29;5.25;;;1.40;;
13891;SDS011;7016;48.172;8.058;2022-10-16T11:33:04;9.98;;;1.50;;
13891;SDS011;7016;48.172;8.058;2022-10-16T11:38:46;6.65;;;1.42;;
13891;SDS011;7016;48.172;8.058;2022-10-16T11:41:35;7.13;;;1.45;;
13891;SDS011;7016;48.172;8.058;2022-10-16T11:44:20;13.68;;;1.85;;
13891;SDS011;7016;48.172;8.058;2022-10-16T11:49:36;6.90;;;1.63;;
13891;SDS011;7016;48.172;8.058;2022-10-16T11:54:49;9.50;;;1.70;;
13891;SDS011;7016;48.172;8.058;2022-10-16T11:57:24;7.25;;;1.67;;
13891;SDS011;7016;48.172;8.058;2022-10-16T11:59:55;9.57;;;2.45;;
13891;SDS011;7016;48.172;8.058;2022-10-16T12:08:17;6.07;;;1.70;;
13891;SDS011;7016;48.172;8.058;2022-10-16T12:10:44;8.68;;;2.13;;
13891;SDS011;7016;48.172;8.058;2022-10-16T12:18:38;6.75;;;1.80;;
13891;SDS011;7016;48.172;8.058;2022-10-16T12:21:05;10.38;;;1.88;;
13891;SDS011;7016;48.172;8.058;2022-10-16T12:23:33;11.02;;;2.13;;
13891;SDS011;7016;48.172;8.058;2022-10-16T12:26:03;7.28;;;2.40;;
13891;SDS011;7016;48.172;8.058;2022-10-16T12:28:31;17.42;;;2.20;;
13891;SDS011;7016;48.172;8.058;2022-10-16T12:30:58;8.32;;;2.00;;
13891;SDS011;7016;48.172;8.058;2022-10-16T12:36:02;6.32;;;1.73;;
13891;SDS011;7016;48.172;8.058;2022-10-16T12:38:38;8.55;;;2.40;;
13891;SDS011;7016;48.172;8.058;2022-10-16T12:41:08;8.95;;;1.83;;
13891;SDS011;7016;48.172;8.058;2022-10-16T12:43:36;17.65;;;2.15;;
13891;SDS011;7016;48.172;8.058;2022-10-16T12:46:06;7.82;;;2.00;;
13891;SDS011;7016;48.172;8.058;2022-10-16T12:48:47;15.60;;;2.15;;
13891;SDS011;7016;48.172;8.058;2022-10-16T12:51:22;14.48;;;1.90;;
13891;SDS011;7016;48.172;8.058;2022-10-16T13:27:40;10.52;;;1.73;;
13891;SDS011;7016;48.172;8.058;2022-10-16T13:30:26;10.50;;;1.90;;
13891;SDS011;7016;48.172;8.058;2022-10-16T13:33:00;10.48;;;1.90;;
13891;SDS011;7016;48.172;8.058;2022-10-16T13:35:33;7.47;;;1.80;;
13891;SDS011;7016;48.172;8.058;2022-10-16T13:38:34;6.35;;;2.08;;
13891;SDS011;7016;48.172;8.058;2022-10-16T13:40:54;13.38;;;1.98;;
13891;SDS011;7016;48.172;8.058;2022-10-16T13:43:27;4.45;;;1.90;;
13891;SDS011;7016;48.172;8.058;2022-10-16T13:45:54;5.43;;;1.83;;
13891;SDS011;7016;48.172;8.058;2022-10-16T13:48:27;7.05;;;1.90;;
13891;SDS011;7016;48.172;8.058;2022-10-16T13:51:14;8.25;;;2.20;;
13891;SDS011;7016;48.172;8.058;2022-10-16T13:53:42;4.22;;;1.40;;
13891;SDS011;7016;48.172;8.058;2022-10-16T13:56:13;9.98;;;1.75;;
13891;SDS011;7016;48.172;8.058;2022-10-16T13:58:43;8.90;;;2.00;;
13891;SDS011;7016;48.172;8.058;2022-10-16T14:03:50;10.80;;;1.45;;
13891;SDS011;7016;48.172;8.058;2022-10-16T14:06:18;4.82;;;1.90;;
13891;SDS011;7016;48.172;8.058;2022-10-16T14:08:49;11.95;;;1.95;;
13891;SDS011;7016;48.172;8.058;2022-10-16T14:11:30;13.23;;;2.08;;
13891;SDS011;7016;48.172;8.058;2022-10-16T14:13:55;8.35;;;1.80;;
13891;SDS011;7016;48.172;8.058;2022-10-16T14:16:23;13.18;;;1.80;;
13891;SDS011;7016;48.172;8.058;2022-10-16T14:18:58;9.52;;;2.42;;
13891;SDS011;7016;48.172;8.058;2022-10-16T14:21:26;5.93;;;1.88;;
13891;SDS011;7016;48.172;8.058;2022-10-16T14:23:53;15.38;;;1.98;;
13891;SDS011;7016;48.172;8.058;2022-10-16T14:26:20;6.28;;;2.10;;
13891;SDS011;7016;48.172;8.058;2022-10-16T14:28:49;9.18;;;1.92;;
13891;SDS011;7016;48.172;8.058;2022-10-16T14:33:54;7.95;;;2.10;;
13891;SDS011;7016;48.172;8.058;2022-10-16T14:36:20;13.23;;;2.15;;
13891;SDS011;7016;48.172;8.058;2022-10-16T14:38:56;5.90;;;2.00;;
13891;SDS011;7016;48.172;8.058;2022-10-16T14:41:29;10.52;;;2.00;;
13891;SDS011;7016;48.172;8.058;2022-10-16T14:43:57;10.38;;;1.95;;
13891;SDS011;7016;48.172;8.058;2022-10-16T14:46:37;12.82;;;1.98;;
13891;SDS011;7016;48.172;8.058;2022-10-16T14:51:33;11.88;;;2.08;;
13891;SDS011;7016;48.172;8.058;2022-10-16T14:53:59;19.67;;;2.75;;
13891;SDS011;7016;48.172;8.058;2022-10-16T14:56:29;9.98;;;2.40;;
13891;SDS011;7016;48.172;8.058;2022-10-16T14:58:59;6.95;;;1.70;;
13891;SDS011;7016;48.172;8.058;2022-10-16T15:01:26;7.60;;;1.73;;
13891;SDS011;7016;48.172;8.058;2022-10-16T15:03:52;12.80;;;2.08;;
13891;SDS011;7016;48.172;8.058;2022-10-16T15:06:19;5.85;;;2.30;;
13891;SDS011;7016;48.172;8.058;2022-10-16T15:08:46;10.40;;;2.58;;
13891;SDS011;7016;48.172;8.058;2022-10-16T15:11:16;8.15;;;3.03;;
13891;SDS011;7016;48.172;8.058;2022-10-16T15:13:43;9.50;;;2.50;;
13891;SDS011;7016;48.172;8.058;2022-10-16T15:16:13;5.43;;;1.83;;
13891;SDS011;7016;48.172;8.058;2022-10-16T15:18:41;4.88;;;1.80;;
13891;SDS011;7016;48.172;8.058;2022-10-16T15:21:07;5.43;;;2.08;;
13891;SDS011;7016;48.172;8.058;2022-10-16T15:23:34;13.68;;;2.72;;
13891;SDS011;7016;48.172;8.058;2022-10-16T15:25:59;3.83;;;1.85;;
13891;SDS011;7016;48.172;8.058;2022-10-16T15:28:25;8.00;;;2.10;;
13891;SDS011;7016;48.172;8.058;2022-10-16T15:30:52;8.57;;;2.10;;
13891;SDS011;7016;48.172;8.058;2022-10-16T15:33:24;4.28;;;1.70;;
13891;SDS011;7016;48.172;8.058;2022-10-16T15:35:53;8.43;;;2.05;;
13891;SDS011;7016;48.172;8.058;2022-10-16T15:38:20;17.15;;;2.38;;
13891;SDS011;7016;48.172;8.058;2022-10-16T15:40:48;10.10;;;2.35;;
13891;SDS011;7016;48.172;8.058;2022-10-16T15:43:14;9.38;;;2.30;;
13891;SDS011;7016;48.172;8.058;2022-10-16T15:45:40;10.80;;;2.33;;
13891;SDS011;7016;48.172;8.058;2022-10-16T15:48:08;11.32;;;2.22;;
13891;SDS011;7016;48.172;8.058;2022-10-16T15:50:36;11.80;;;2.53;;
13891;SDS011;7016;48.172;8.058;2022-10-16T15:53:03;10.20;;;2.78;;
13891;SDS011;7016;48.172;8.058;2022-10-16T15:55:29;8.00;;;2.13;;
13891;SDS011;7016;48.172;8.058;2022-10-16T15:57:55;11.07;;;2.30;;
13891;SDS011;7016;48.172;8.058;2022-10-16T16:00:21;14.27;;;2.72;;
13891;SDS011;7016;48.172;8.058;2022-10-16T16:02:50;11.38;;;2.58;;
13891;SDS011;7016;48.172;8.058;2022-10-16T16:05:18;7.15;;;2.15;;
13891;SDS011;7016;48.172;8.058;2022-10-16T16:07:44;11.70;;;2.22;;
13891;SDS011;7016;48.172;8.058;2022-10-16T16:10:10;9.80;;;2.47;;
13891;SDS011;7016;48.172;8.058;2022-10-16T16:12:36;16.17;;;2.72;;
13891;SDS011;7016;48.172;8.058;2022-10-16T16:15:06;14.40;;;2.65;;
13891;SDS011;7016;48.172;8.058;2022-10-16T16:17:33;8.20;;;2.22;;
13891;SDS011;7016;48.172;8.058;2022-10-16T16:20:00;7.97;;;2.35;;
13891;SDS011;7016;48.172;8.058;2022-10-16T16:22:25;9.57;;;2.03;;
13891;SDS011;7016;48.172;8.058;2022-10-16T16:24:52;14.77;;;2.92;;
13891;SDS011;7016;48.172;8.058;2022-10-16T16:27:18;14.15;;;2.95;;
13891;SDS011;7016;48.172;8.058;2022-10-16T16:29:44;14.40;;;3.85;;
13891;SDS011;7016;48.172;8.058;2022-10-16T16:32:11;10.55;;;3.90;;
13891;SDS011;7016;48.172;8.058;2022-10-16T16:34:36;18.83;;;3.38;;
13891;SDS011;7016;48.172;8.058;2022-10-16T16:37:02;20.30;;;2.70;;
13891;SDS011;7016;48.172;8.058;2022-10-16T16:39:28;10.90;;;2.53;;
13891;SDS011;7016;48.172;8.058;2022-10-16T16:41:55;14.07;;;2.50;;
13891;SDS011;7016;48.172;8.058;2022-10-16T16:44:21;10.63;;;3.00;;
13891;SDS011;7016;48.172;8.058;2022-10-16T16:46:47;12.77;;;3.53;;
13891;SDS011;7016;48.172;8.058;2022-10-16T16:49:13;11.20;;;3.25;;
13891;SDS011;7016;48.172;8.058;2022-10-16T16:51:40;21.52;;;3.92;;
13891;SDS011;7016;48.172;8.058;2022-10-16T16:54:06;13.00;;;3.05;;
13891;SDS011;7016;48.172;8.058;2022-10-16T16:56:34;18.80;;;4.05;;
13891;SDS011;7016;48.172;8.058;2022-10-16T16:59:00;17.45;;;3.65;;
13891;SDS011;7016;48.172;8.058;2022-10-16T17:01:26;18.88;;;3.28;;
13891;SDS011;7016;48.172;8.058;2022-10-16T17:03:53;22.25;;;4.13;;
13891;SDS011;7016;48.172;8.058;2022-10-16T17:06:21;9.85;;;3.67;;
13891;SDS011;7016;48.172;8.058;2022-10-16T17:08:50;8.85;;;3.03;;
13891;SDS011;7016;48.172;8.058;2022-10-16T17:11:17;10.18;;;2.90;;
13891;SDS011;7016;48.172;8.058;2022-10-16T17:13:45;17.23;;;3.35;;
13891;SDS011;7016;48.172;8.058;2022-10-16T17:16:11;12.23;;;3.63;;
13891;SDS011;7016;48.172;8.058;2022-10-16T17:18:37;11.15;;;3.70;;
13891;SDS011;7016;48.172;8.058;2022-10-16T17:21:04;14.63;;;3.08;;
13891;SDS011;7016;48.172;8.058;2022-10-16T17:23:32;8.88;;;3.78;;
13891;SDS011;7016;48.172;8.058;2022-10-16T17:26:06;9.43;;;3.25;;
13891;SDS011;7016;48.172;8.058;2022-10-16T17:28:33;19.45;;;3.38;;
13891;SDS011;7016;48.172;8.058;2022-10-16T17:31:12;11.38;;;3.67;;
13891;SDS011;7016;48.172;8.058;2022-10-16T17:33:40;9.02;;;3.38;;